createdAt,value
2019-03-05T00:01:46.921Z,98910.75
2019-03-05T00:04:16.318Z,98909.21
2019-03-05T00:06:45.753Z,98919.73
2019-03-05T00:09:16.793Z,98921.02
2019-03-05T00:11:46.166Z,98918.78
2019-03-05T00:14:18.701Z,98926.94
2019-03-05T00:16:47.716Z,98918.31
2019-03-05T00:19:17.121Z,98908.38
2019-03-05T00:21:46.652Z,98917.25
2019-03-05T00:24:52.091Z,98913.45
2019-03-05T00:27:21.514Z,98933.91
2019-03-05T00:30:10.588Z,98939.12
2019-03-05T00:32:40.014Z,98932.38
2019-03-05T00:35:18.798Z,98932.15
2019-03-05T00:37:51.481Z,98938.39
2019-03-05T00:40:26.926Z,98947.38
2019-03-05T00:43:05.302Z,98945.36
2019-03-05T00:45:37.889Z,98954.13
2019-03-05T00:48:16.553Z,98949.63
2019-03-05T00:50:51.652Z,98966.52
2019-03-05T00:53:29.454Z,98968.15
2019-03-05T00:56:20.250Z,98968.27
2019-03-05T00:58:58.724Z,98978.06
2019-03-05T01:01:31.315Z,98976.98
2019-03-05T01:04:04.018Z,98980.64
2019-03-05T01:06:33.350Z,98984.39
2019-03-05T01:09:02.709Z,98985.21
2019-03-05T01:11:32.378Z,98989.56
2019-03-05T01:14:02.365Z,98992.61
2019-03-05T01:16:33.358Z,98993.30
2019-03-05T01:19:03.027Z,98992.81
2019-03-05T01:21:32.386Z,98997.98
2019-03-05T01:24:02.381Z,98993.02
2019-03-05T01:26:32.241Z,98988.97
2019-03-05T01:29:02.129Z,98992.72
2019-03-05T01:31:39.068Z,98993.78
2019-03-05T01:34:15.784Z,99004.72
2019-03-05T01:36:46.783Z,99000.59
2019-03-05T01:39:23.486Z,98996.20
2019-03-05T01:41:52.845Z,99004.48
2019-03-05T01:44:22.214Z,98996.94
2019-03-05T01:46:51.589Z,99004.94
2019-03-05T01:49:20.995Z,99011.06
2019-03-05T01:51:50.424Z,99011.06
2019-03-05T01:54:19.759Z,99012.81
2019-03-05T01:56:49.148Z,99009.67
2019-03-05T01:59:18.455Z,99020.38
2019-03-05T02:01:47.814Z,99023.11
2019-03-05T02:04:17.214Z,99027.83
2019-03-05T02:06:46.582Z,99027.55
2019-03-05T02:09:15.992Z,99029.53
2019-03-05T02:11:45.349Z,99034.94
2019-03-05T02:14:14.688Z,99029.01
2019-03-05T02:16:44.051Z,99032.66
2019-03-05T02:19:35.236Z,99027.47
2019-03-05T02:22:06.896Z,99037.25
2019-03-05T02:24:57.099Z,99040.77
2019-03-05T02:27:38.229Z,99026.59
2019-03-05T02:30:25.634Z,99029.53
2019-03-05T02:33:23.507Z,99039.91
2019-03-05T02:35:58.495Z,99037.09
2019-03-05T02:38:39.935Z,99045.34
2019-03-05T02:41:27.625Z,99051.45
2019-03-05T02:44:08.657Z,99049.23
2019-03-05T02:46:50.305Z,99047.02
2019-03-05T02:49:34.572Z,99043.73
2019-03-05T02:52:07.161Z,99062.06
2019-03-05T02:55:14.108Z,99061.78
2019-03-05T02:57:42.546Z,99047.17
2019-03-05T03:00:13.549Z,99054.37
2019-03-05T03:02:44.521Z,99053.10
2019-03-05T03:05:15.523Z,99053.94
2019-03-05T03:07:44.865Z,99058.20
2019-03-05T03:10:17.570Z,99058.41
2019-03-05T03:12:46.878Z,99062.16
2019-03-05T03:15:16.305Z,99073.06
2019-03-05T03:17:45.642Z,99068.11
2019-03-05T03:20:15.741Z,99064.94
2019-03-05T03:22:45.076Z,99072.41
2019-03-05T03:25:16.277Z,99063.44
2019-03-05T03:27:45.589Z,99067.70
2019-03-05T03:30:16.613Z,99068.20
2019-03-05T03:32:46.009Z,99065.14
2019-03-05T03:35:15.742Z,99065.60
2019-03-05T03:37:45.141Z,99069.28
2019-03-05T03:40:18.708Z,99071.87
2019-03-05T03:42:48.058Z,99075.52
2019-03-05T03:45:19.019Z,99077.04
2019-03-05T03:47:48.423Z,99077.02
2019-03-05T03:50:17.883Z,99073.92
2019-03-05T03:52:47.202Z,99078.37
2019-03-05T03:55:16.551Z,99087.21
2019-03-05T03:57:45.891Z,99085.76
2019-03-05T04:00:22.392Z,99084.09
2019-03-05T04:02:51.797Z,99075.74
2019-03-05T04:05:21.150Z,99091.06
2019-03-05T04:07:50.560Z,99081.95
2019-03-05T04:10:19.917Z,99082.16
2019-03-05T04:12:49.252Z,99089.81
2019-03-05T04:15:19.342Z,99091.88
2019-03-05T04:17:48.677Z,99102.92
2019-03-05T04:20:19.687Z,99108.11
2019-03-05T04:22:49.091Z,99112.13
2019-03-05T04:25:18.454Z,99106.69
2019-03-05T04:27:47.813Z,99104.55
2019-03-05T04:30:17.218Z,99107.15
2019-03-05T04:32:46.650Z,99109.74
2019-03-05T04:35:15.982Z,99106.77
2019-03-05T04:37:45.415Z,99107.81
2019-03-05T04:40:14.817Z,99109.03
2019-03-05T04:42:44.173Z,99107.36
2019-03-05T04:45:34.130Z,99096.40
2019-03-05T04:48:03.491Z,99103.97
2019-03-05T04:50:37.693Z,99091.63
2019-03-05T04:53:07.238Z,99099.91
2019-03-05T04:55:36.565Z,99094.26
2019-03-05T04:58:05.922Z,99101.37
2019-03-05T05:00:35.261Z,99100.70
2019-03-05T05:03:04.614Z,99099.77
2019-03-05T05:05:33.951Z,99102.08
2019-03-05T05:08:03.332Z,99104.00
2019-03-05T05:10:33.122Z,99100.11
2019-03-05T05:13:02.555Z,99103.28
2019-03-05T05:15:34.287Z,99094.67
2019-03-05T05:18:03.730Z,99116.39
2019-03-05T05:20:33.455Z,99097.89
2019-03-05T05:23:02.820Z,99102.86
2019-03-05T05:25:32.155Z,99109.48
2019-03-05T05:28:01.510Z,99108.83
2019-03-05T05:30:33.040Z,99094.37
2019-03-05T05:33:02.467Z,99106.09
2019-03-05T05:35:31.873Z,99098.70
2019-03-05T05:38:01.306Z,99107.58
2019-03-05T05:40:38.063Z,99102.16
2019-03-05T05:43:10.166Z,99095.45
2019-03-05T05:45:49.569Z,99122.97
2019-03-05T05:48:18.943Z,99114.73
2019-03-05T05:50:48.277Z,99111.00
2019-03-05T05:53:17.693Z,99115.60
2019-03-05T05:55:47.029Z,99120.33
2019-03-05T05:58:16.461Z,99126.23
2019-03-05T06:00:47.435Z,99124.84
2019-03-05T06:03:16.795Z,99138.17
2019-03-05T06:05:46.197Z,99126.02
2019-03-05T06:08:15.568Z,99127.22
2019-03-05T06:10:45.092Z,99132.52
2019-03-05T06:13:14.534Z,99125.80
2019-03-05T06:15:43.911Z,99136.93
2019-03-05T06:18:13.488Z,99137.73
2019-03-05T06:20:42.928Z,99138.10
2019-03-05T06:23:12.381Z,99135.72
2019-03-05T06:25:41.782Z,99135.97
2019-03-05T06:28:11.137Z,99140.95
2019-03-05T06:30:41.805Z,99135.19
2019-03-05T06:33:11.285Z,99141.69
2019-03-05T06:35:40.616Z,99148.20
2019-03-05T06:38:09.988Z,99144.33
2019-03-05T06:40:39.316Z,99145.75
2019-03-05T06:43:08.682Z,99142.93
2019-03-05T06:45:38.018Z,99151.34
2019-03-05T06:48:07.713Z,99155.48
2019-03-05T06:50:37.045Z,99139.81
2019-03-05T06:53:06.413Z,99157.19
2019-03-05T06:55:35.814Z,99136.61
2019-03-05T06:58:05.694Z,99133.45
2019-03-05T07:00:38.676Z,99147.25
2019-03-05T07:03:09.092Z,99150.13
2019-03-05T07:06:14.586Z,99153.53
2019-03-05T07:08:50.149Z,99150.61
2019-03-05T07:11:25.632Z,99160.55
2019-03-05T07:14:01.001Z,99165.73
2019-03-05T07:16:33.778Z,99178.27
2019-03-05T07:19:03.779Z,99165.73
2019-03-05T07:21:54.190Z,99171.52
2019-03-05T07:24:46.345Z,99172.82
2019-03-05T07:27:18.221Z,99180.89
2019-03-05T07:29:47.611Z,99190.23
2019-03-05T07:32:16.936Z,99187.86
2019-03-05T07:34:48.013Z,99185.02
2019-03-05T07:37:17.341Z,99210.77
2019-03-05T07:39:46.708Z,99200.22
2019-03-05T07:42:16.048Z,99191.81
2019-03-05T07:44:45.410Z,99197.25
2019-03-05T07:47:14.741Z,99201.15
2019-03-05T07:49:44.458Z,99204.09
2019-03-05T07:52:13.825Z,99194.34
2019-03-05T07:54:43.185Z,99203.45
2019-03-05T07:57:12.546Z,99205.31
2019-03-05T07:59:41.878Z,99212.29
2019-03-05T08:02:11.257Z,99203.99
2019-03-05T08:04:40.603Z,99208.39
2019-03-05T08:07:10.056Z,99211.20
2019-03-05T08:09:39.386Z,99210.47
2019-03-05T08:12:18.097Z,99225.28
2019-03-05T08:14:53.230Z,99225.77
2019-03-05T08:17:23.383Z,99258.58
2019-03-05T08:19:52.901Z,99229.45
2019-03-05T08:22:22.438Z,99231.70
2019-03-05T08:24:52.063Z,99240.56
2019-03-05T08:27:21.445Z,99241.86
2019-03-05T08:29:50.768Z,99230.86
2019-03-05T08:32:20.243Z,99237.14
2019-03-05T08:34:50.797Z,99251.11
2019-03-05T08:37:20.157Z,99248.16
2019-03-05T08:39:49.493Z,99242.17
2019-03-05T08:42:18.865Z,99248.16
2019-03-05T08:44:50.730Z,99247.67
2019-03-05T08:47:19.326Z,99265.08
2019-03-05T08:49:48.659Z,99265.94
2019-03-05T08:52:18.019Z,99283.25
2019-03-05T08:54:47.345Z,99281.12
2019-03-05T08:57:16.800Z,99280.91
2019-03-05T08:59:46.138Z,99332.23
2019-03-05T09:02:15.513Z,99291.59
2019-03-05T09:04:44.849Z,99301.17
2019-03-05T09:07:14.211Z,99303.44
2019-03-05T09:09:43.549Z,99294.83
2019-03-05T09:12:12.911Z,99324.09
2019-03-05T09:14:42.237Z,99308.60
2019-03-05T09:17:11.626Z,99359.16
2019-03-05T09:19:40.961Z,99300.87
2019-03-05T09:22:10.331Z,99314.20
2019-03-05T09:24:39.702Z,99325.89
2019-03-05T09:27:09.028Z,99300.77
2019-03-05T09:29:38.605Z,99312.39
2019-03-05T09:32:07.933Z,99307.56
2019-03-05T09:34:37.294Z,99317.16
2019-03-05T09:37:06.630Z,99321.05
2019-03-05T09:39:36.020Z,99324.83
2019-03-05T09:42:05.426Z,99322.29
2019-03-05T09:44:34.797Z,99335.08
2019-03-05T09:47:04.649Z,99331.16
2019-03-05T09:49:35.122Z,99326.28
2019-03-05T09:52:04.526Z,99324.30
2019-03-05T09:54:33.887Z,99336.20
2019-03-05T09:57:03.223Z,99350.55
2019-03-05T09:59:32.661Z,99342.98
2019-03-05T10:02:01.994Z,99350.09
2019-03-05T10:04:31.913Z,99365.13
2019-03-05T10:07:01.321Z,99362.41
2019-03-05T10:09:30.749Z,99347.69
2019-03-05T10:12:00.077Z,99360.03
2019-03-05T10:14:29.435Z,99379.24
2019-03-05T10:16:58.765Z,99383.76
2019-03-05T10:19:28.201Z,99379.25
2019-03-05T10:21:57.602Z,99386.36
2019-03-05T10:24:26.953Z,99384.70
2019-03-05T10:26:56.457Z,99394.30
2019-03-05T10:29:25.877Z,99376.73
2019-03-05T10:31:55.284Z,99387.31
2019-03-05T10:34:25.010Z,99394.08
2019-03-05T10:36:54.417Z,99383.75
2019-03-05T10:39:30.443Z,99387.06
2019-03-05T10:41:56.243Z,99398.67
2019-03-05T10:44:25.599Z,99397.36
2019-03-05T10:46:56.124Z,99397.73
2019-03-05T10:49:25.678Z,99413.02
2019-03-05T10:51:55.084Z,99394.42
2019-03-05T10:54:24.443Z,99408.63
2019-03-05T10:56:53.846Z,99394.05
2019-03-05T10:59:23.210Z,99400.47
2019-03-05T11:01:52.687Z,99404.60
2019-03-05T11:04:22.116Z,99401.98
2019-03-05T11:06:51.522Z,99394.12
2019-03-05T11:09:20.878Z,99390.67
2019-03-05T11:11:51.721Z,99405.58
2019-03-05T11:14:21.082Z,99402.60
2019-03-05T11:16:50.420Z,99402.17
2019-03-05T11:19:19.780Z,99396.45
2019-03-05T11:21:49.123Z,99398.73
2019-03-05T11:24:18.555Z,99398.34
2019-03-05T11:26:47.901Z,99386.00
2019-03-05T11:29:17.272Z,99391.41
2019-03-05T11:31:46.609Z,99397.93
2019-03-05T11:34:16.047Z,99411.45
2019-03-05T11:36:45.394Z,99388.09
2019-03-05T11:39:14.760Z,99392.23
2019-03-05T11:41:44.181Z,99392.57
2019-03-05T11:44:13.575Z,99387.25
2019-03-05T11:46:42.927Z,99388.28
2019-03-05T11:49:12.316Z,99402.92
2019-03-05T11:51:41.650Z,99388.03
2019-03-05T11:54:11.016Z,99408.16
2019-03-05T11:56:40.384Z,99399.28
2019-03-05T11:59:09.746Z,99403.59
2019-03-05T12:01:39.286Z,99434.06
2019-03-05T12:04:08.630Z,99400.95
2019-03-05T12:06:37.995Z,99407.73
2019-03-05T12:09:07.339Z,99415.91
2019-03-05T12:11:37.106Z,99411.19
2019-03-05T12:14:06.523Z,99404.82
2019-03-05T12:16:36.227Z,99414.84
2019-03-05T12:19:05.640Z,99421.31
2019-03-05T12:21:35.422Z,99419.52
2019-03-05T12:24:05.106Z,99401.05
2019-03-05T12:26:34.474Z,99420.73
2019-03-05T12:29:03.810Z,99427.06
2019-03-05T12:31:33.173Z,99438.13
2019-03-05T12:34:02.516Z,99433.34
2019-03-05T12:36:31.886Z,99456.98
2019-03-05T12:39:01.244Z,99467.86
2019-03-05T12:41:30.916Z,99444.68
2019-03-05T12:44:00.324Z,99456.87
2019-03-05T12:46:29.683Z,99468.69
2019-03-05T12:48:59.020Z,99498.11
2019-03-05T12:51:28.457Z,99529.12
2019-03-05T12:53:57.865Z,99528.31
2019-03-05T12:56:27.236Z,99534.01
2019-03-05T12:58:56.635Z,99534.36
2019-03-05T13:01:26.073Z,99542.21
2019-03-05T13:03:55.408Z,99541.93
2019-03-05T13:06:24.782Z,99533.97
2019-03-05T13:08:54.187Z,99541.77
2019-03-05T13:11:23.563Z,99550.61
2019-03-05T13:14:05.726Z,99544.77
2019-03-05T13:16:24.108Z,99548.52
2019-03-05T13:18:53.518Z,99543.33
2019-03-05T13:21:22.888Z,99535.02
2019-03-05T13:23:52.228Z,99535.16
2019-03-05T13:26:21.590Z,99535.13
2019-03-05T13:28:50.993Z,99545.48
2019-03-05T13:31:20.428Z,99532.62
2019-03-05T13:33:49.758Z,99534.19
2019-03-05T13:36:19.125Z,99532.39
2019-03-05T13:38:48.450Z,99537.52
2019-03-05T13:41:17.814Z,99541.16
2019-03-05T13:43:47.145Z,99541.24
2019-03-05T13:46:16.506Z,99550.97
2019-03-05T13:49:00.777Z,99552.63
2019-03-05T13:51:46.658Z,99554.80
2019-03-05T13:54:48.579Z,99548.50
2019-03-05T13:57:34.503Z,99537.71
2019-03-05T14:00:07.328Z,99549.05
2019-03-05T14:02:56.360Z,99545.86
2019-03-05T14:05:46.609Z,99542.53
2019-03-05T14:08:36.138Z,99540.82
2019-03-05T14:11:05.475Z,99544.30
2019-03-05T14:13:35.472Z,99541.13
2019-03-05T14:16:07.305Z,99543.03
2019-03-05T14:18:36.642Z,99546.23
2019-03-05T14:21:06.498Z,99539.92
2019-03-05T14:23:35.846Z,99546.95
2019-03-05T14:26:05.277Z,99541.46
2019-03-05T14:28:34.676Z,99543.00
2019-03-05T14:31:04.492Z,99540.16
2019-03-05T14:33:34.490Z,99541.83
2019-03-05T14:36:04.506Z,99550.49
2019-03-05T14:38:33.887Z,99547.05
2019-03-05T14:41:03.307Z,99548.21
2019-03-05T14:43:32.826Z,99550.95
2019-03-05T14:46:02.760Z,99553.43
2019-03-05T14:48:32.107Z,99553.57
2019-03-05T14:51:01.524Z,99556.44
2019-03-05T14:53:30.998Z,99553.22
2019-03-05T14:56:00.373Z,99556.44
2019-03-05T14:58:29.828Z,99553.83
2019-03-05T15:00:59.261Z,99558.91
2019-03-05T15:03:28.554Z,99554.02
2019-03-05T15:05:58.016Z,99562.82
2019-03-05T15:08:27.411Z,99558.87
2019-03-05T15:10:56.878Z,99561.38
2019-03-05T15:13:26.186Z,99551.64
2019-03-05T15:15:55.655Z,99555.67
2019-03-05T15:18:25.034Z,99561.73
2019-03-05T15:20:54.399Z,99563.66
2019-03-05T15:23:23.718Z,99556.04
2019-03-05T15:25:53.104Z,99560.47
2019-03-05T15:28:22.478Z,99564.95
2019-03-05T15:30:51.922Z,99552.05
2019-03-05T15:33:21.277Z,99552.38
2019-03-05T15:35:50.832Z,99557.61
2019-03-05T15:38:20.180Z,99567.59
2019-03-05T15:40:49.533Z,99571.47
2019-03-05T15:43:18.936Z,99588.27
2019-03-05T15:45:48.331Z,99578.74
2019-03-05T15:48:17.659Z,99592.91
2019-03-05T15:50:47.234Z,99592.56
2019-03-05T15:53:16.619Z,99593.72
2019-03-05T15:55:45.963Z,99595.34
2019-03-05T15:58:15.322Z,99599.02
2019-03-05T16:00:44.730Z,99596.03
2019-03-05T16:03:14.090Z,99599.42
2019-03-05T16:05:43.426Z,99595.59
2019-03-05T16:08:12.789Z,99602.20
2019-03-05T16:10:42.303Z,99611.50
2019-03-05T16:13:15.379Z,99610.64
2019-03-05T16:15:45.467Z,99615.01
2019-03-05T16:18:13.752Z,99615.69
2019-03-05T16:20:43.163Z,99645.77
2019-03-05T16:23:12.523Z,99668.73
2019-03-05T16:25:42.302Z,99659.00
2019-03-05T16:28:11.670Z,99659.56
2019-03-05T16:30:45.718Z,99648.23
2019-03-05T16:33:19.121Z,99654.61
2019-03-05T16:35:53.465Z,99658.00
2019-03-05T16:38:27.318Z,99672.61
2019-03-05T16:41:06.178Z,99668.66
2019-03-05T16:43:37.311Z,99672.21
2019-03-05T16:46:14.608Z,99679.01
2019-03-05T16:48:45.675Z,99693.94
2019-03-05T16:51:16.648Z,99701.38
2019-03-05T16:53:47.658Z,99704.34
2019-03-05T16:56:24.514Z,99713.98
2019-03-05T16:59:07.655Z,99724.34
2019-03-05T17:01:44.639Z,99731.92
2019-03-05T17:04:21.420Z,99732.75
2019-03-05T17:07:10.270Z,99735.03
2019-03-05T17:09:41.931Z,99737.05
2019-03-05T17:12:11.267Z,99754.08
2019-03-05T17:14:40.631Z,99755.72
2019-03-05T17:17:09.957Z,99763.85
2019-03-05T17:19:39.388Z,99765.95
2019-03-05T17:22:08.723Z,99773.09
2019-03-05T17:24:38.091Z,99782.33
2019-03-05T17:27:07.430Z,99783.97
2019-03-05T17:29:36.794Z,99787.25
2019-03-05T17:32:06.511Z,99791.14
2019-03-05T17:34:35.880Z,99803.19
2019-03-05T17:37:05.270Z,99800.72
2019-03-05T17:39:34.636Z,99802.86
2019-03-05T17:42:03.976Z,99804.89
2019-03-05T17:44:34.902Z,99810.84
2019-03-05T17:47:04.290Z,99805.33
2019-03-05T17:49:33.675Z,99809.95
2019-03-05T17:52:03.021Z,99816.81
2019-03-05T17:54:32.685Z,99809.04
2019-03-05T17:57:02.081Z,99817.17
2019-03-05T17:59:31.887Z,99812.44
2019-03-05T18:02:01.261Z,99809.22
2019-03-05T18:04:30.595Z,99811.08
2019-03-05T18:07:00.403Z,99811.08
2019-03-05T18:09:29.734Z,99811.98
2019-03-05T18:11:59.168Z,99818.40
2019-03-05T18:14:28.508Z,99809.85
2019-03-05T18:16:57.869Z,99817.73
2019-03-05T18:19:27.392Z,99809.00
2019-03-05T18:21:56.756Z,99812.88
2019-03-05T18:24:26.153Z,99823.64
2019-03-05T18:26:55.518Z,99834.97
2019-03-05T18:29:24.920Z,99841.34
2019-03-05T18:31:54.357Z,99835.77
2019-03-05T18:34:23.789Z,99844.16
2019-03-05T18:36:53.217Z,99846.97
2019-03-05T18:39:24.065Z,99850.69
2019-03-05T18:41:53.423Z,99857.53
2019-03-05T18:44:22.757Z,99872.92
2019-03-05T18:46:52.113Z,99865.41
2019-03-05T18:49:21.450Z,99874.19
2019-03-05T18:51:50.814Z,99877.98
2019-03-05T18:54:20.327Z,99888.91
2019-03-05T18:56:49.709Z,99891.56
2019-03-05T18:59:19.037Z,99904.17
2019-03-05T19:01:48.474Z,99905.66
2019-03-05T19:04:17.875Z,99904.03
2019-03-05T19:06:47.440Z,99919.81
2019-03-05T19:09:16.771Z,99923.53
2019-03-05T19:11:46.129Z,99940.77
2019-03-05T19:14:15.495Z,99947.25
2019-03-05T19:16:44.868Z,99943.56
2019-03-05T19:19:14.302Z,99941.35
2019-03-05T19:21:43.630Z,99944.85
2019-03-05T19:24:13.037Z,99950.20
2019-03-05T19:26:42.408Z,99939.09
2019-03-05T19:29:11.844Z,99945.34
2019-03-05T19:31:41.183Z,99947.36
2019-03-05T19:34:10.629Z,99953.27
2019-03-05T19:36:39.966Z,99963.08
2019-03-05T19:39:09.338Z,99958.22
2019-03-05T19:41:38.747Z,99961.88
2019-03-05T19:44:08.113Z,99963.66
2019-03-05T19:46:37.447Z,99963.34
2019-03-05T19:49:07.305Z,99963.56
2019-03-05T19:51:37.912Z,99967.61
2019-03-05T19:54:09.451Z,99974.94
2019-03-05T19:56:38.521Z,99973.09
2019-03-05T19:59:07.958Z,99981.05
2019-03-05T20:01:37.671Z,99980.84
2019-03-05T20:04:11.584Z,99984.53
2019-03-05T20:06:41.491Z,99987.50
2019-03-05T20:09:10.857Z,99994.59
2019-03-05T20:11:40.264Z,99992.80
2019-03-05T20:14:09.896Z,100004.30
2019-03-05T20:16:39.417Z,100006.05
2019-03-05T20:19:08.789Z,100011.98
2019-03-05T20:21:38.199Z,100020.89
2019-03-05T20:24:07.579Z,100025.62
2019-03-05T20:26:36.916Z,100026.95
2019-03-05T20:29:06.291Z,100030.75
2019-03-05T20:31:35.645Z,100024.21
2019-03-05T20:34:05.114Z,100029.59
2019-03-05T20:36:34.483Z,100035.55
2019-03-05T20:39:04.695Z,100035.00
2019-03-05T20:41:34.427Z,100045.95
2019-03-05T20:44:03.840Z,100049.12
2019-03-05T20:46:33.204Z,100053.02
2019-03-05T20:49:02.544Z,100062.35
2019-03-05T20:51:31.981Z,100067.22
2019-03-05T20:54:01.395Z,100081.89
2019-03-05T20:56:30.761Z,100083.53
2019-03-05T20:59:00.102Z,100089.32
2019-03-05T21:01:29.468Z,100091.54
2019-03-05T21:03:58.813Z,100096.52
2019-03-05T21:06:28.253Z,100093.34
2019-03-05T21:08:57.599Z,100109.09
2019-03-05T21:11:27.041Z,100095.25
2019-03-05T21:13:56.380Z,100097.89
2019-03-05T21:16:25.819Z,100111.77
2019-03-05T21:18:55.231Z,100114.55
2019-03-05T21:21:24.672Z,100122.91
2019-03-05T21:23:54.095Z,100126.87
2019-03-05T21:26:23.467Z,100133.59
2019-03-05T21:28:53.086Z,100140.96
2019-03-05T21:31:22.528Z,100138.63
2019-03-05T21:33:52.054Z,100141.89
2019-03-05T21:36:21.456Z,100156.38
2019-03-05T21:38:50.818Z,100161.95
2019-03-05T21:41:20.324Z,100163.47
2019-03-05T21:43:49.942Z,100176.22
2019-03-05T21:46:19.375Z,100178.66
2019-03-05T21:48:48.884Z,100176.44
2019-03-05T21:51:18.256Z,100178.38
2019-03-05T21:53:47.674Z,100183.70
2019-03-05T21:56:17.116Z,100194.06
2019-03-05T21:58:46.522Z,100190.23
2019-03-05T22:01:15.960Z,100198.59
2019-03-05T22:03:45.368Z,100203.31
2019-03-05T22:06:14.742Z,100208.44
2019-03-05T22:08:44.078Z,100213.92
2019-03-05T22:11:13.451Z,100212.23
2019-03-05T22:13:42.787Z,100216.20
2019-03-05T22:16:12.326Z,100224.11
2019-03-05T22:18:41.735Z,100227.99
2019-03-05T22:21:11.176Z,100230.27
2019-03-05T22:23:40.583Z,100223.45
2019-03-05T22:26:10.019Z,100234.88
2019-03-05T22:28:39.532Z,100237.52
2019-03-05T22:31:08.905Z,100247.06
2019-03-05T22:33:38.307Z,100247.25
2019-03-05T22:36:07.644Z,100255.45
2019-03-05T22:38:37.338Z,100253.72
2019-03-05T22:41:06.741Z,100264.16
2019-03-05T22:43:36.109Z,100260.59
2019-03-05T22:46:05.521Z,100264.79
2019-03-05T22:48:34.887Z,100273.80
2019-03-05T22:51:04.228Z,100272.55
2019-03-05T22:53:33.644Z,100276.06
2019-03-05T22:56:02.988Z,100276.20
2019-03-05T22:58:32.621Z,100283.17
2019-03-05T23:01:06.576Z,100281.51
2019-03-05T23:03:36.231Z,100289.77
2019-03-05T23:06:09.199Z,100293.33
2019-03-05T23:08:38.560Z,100298.95
2019-03-05T23:11:08.187Z,100302.07
2019-03-05T23:13:37.544Z,100305.19
2019-03-05T23:16:06.947Z,100308.80
2019-03-05T23:18:36.319Z,100314.63
2019-03-05T23:21:05.670Z,100316.94
2019-03-05T23:23:35.034Z,100315.28
2019-03-05T23:26:04.438Z,100318.00
2019-03-05T23:28:34.409Z,100321.08
2019-03-05T23:31:03.751Z,100319.34
2019-03-05T23:33:33.122Z,100322.50
2019-03-05T23:36:02.455Z,100322.50
2019-03-05T23:38:32.165Z,100327.67
2019-03-05T23:41:01.531Z,100329.53
2019-03-05T23:43:30.972Z,100329.17
2019-03-05T23:46:00.379Z,100338.27
2019-03-05T23:48:29.805Z,100338.34
2019-03-05T23:50:59.395Z,100343.69
2019-03-05T23:53:29.030Z,100338.99
2019-03-05T23:55:58.434Z,100348.94
2019-03-05T23:58:27.866Z,100358.44
